createdAt,value
2019-01-20T00:01:06.669Z,23.00
2019-01-20T00:03:35.411Z,21.30
2019-01-20T00:06:03.533Z,22.75
2019-01-20T00:08:31.396Z,23.80
2019-01-20T00:10:59.380Z,22.60
2019-01-20T00:13:27.243Z,22.55
2019-01-20T00:15:55.325Z,24.50
2019-01-20T00:18:23.288Z,23.10
2019-01-20T00:20:51.301Z,23.98
2019-01-20T00:23:19.269Z,23.12
2019-01-20T00:25:47.220Z,21.00
2019-01-20T00:28:15.154Z,22.87
2019-01-20T00:30:43.053Z,21.70
2019-01-20T00:33:11.116Z,20.43
2019-01-20T00:35:38.977Z,21.02
2019-01-20T00:38:07.168Z,22.17
2019-01-20T00:40:35.288Z,22.40
2019-01-20T00:43:03.315Z,22.75
2019-01-20T00:45:31.377Z,22.52
2019-01-20T00:47:59.412Z,22.73
2019-01-20T00:50:27.280Z,22.60
2019-01-20T00:52:55.372Z,23.07
2019-01-20T00:55:23.320Z,21.60
2019-01-20T00:57:51.326Z,22.80
2019-01-20T01:00:26.141Z,23.38
2019-01-20T01:02:55.750Z,23.45
2019-01-20T01:05:23.915Z,22.40
2019-01-20T01:07:52.254Z,22.22
2019-01-20T01:10:20.349Z,25.52
2019-01-20T01:12:49.133Z,23.83
2019-01-20T01:15:18.374Z,24.25
2019-01-20T01:17:46.296Z,24.18
2019-01-20T01:20:15.697Z,24.32
2019-01-20T01:22:45.076Z,24.10
2019-01-20T01:25:13.906Z,24.77
2019-01-20T01:27:42.822Z,26.12
2019-01-20T01:30:22.959Z,25.32
2019-01-20T01:32:51.566Z,25.32
2019-01-20T01:35:19.552Z,26.20
2019-01-20T01:37:47.531Z,26.48
2019-01-20T01:40:16.205Z,26.25
2019-01-20T01:42:44.844Z,25.75
2019-01-20T01:45:15.746Z,25.92
2019-01-20T01:47:45.089Z,26.25
2019-01-20T01:50:14.427Z,26.52
2019-01-20T01:52:43.157Z,23.45
2019-01-20T01:55:11.575Z,26.77
2019-01-20T01:57:39.682Z,25.45
2019-01-20T02:00:16.269Z,28.00
2019-01-20T02:02:45.902Z,25.57
2019-01-20T02:05:14.152Z,26.55
2019-01-20T02:07:42.176Z,26.37
2019-01-20T02:10:12.760Z,25.48
2019-01-20T02:12:42.105Z,26.37
2019-01-20T02:15:11.197Z,25.15
2019-01-20T02:17:40.646Z,26.50
2019-01-20T02:20:11.091Z,26.07
2019-01-20T02:22:40.521Z,27.13
2019-01-20T02:25:08.634Z,26.23
2019-01-20T02:27:36.713Z,24.23
2019-01-20T02:30:07.792Z,26.15
2019-01-20T02:32:37.171Z,23.62
2019-01-20T02:35:05.769Z,25.48
2019-01-20T02:37:33.813Z,25.82
2019-01-20T02:40:01.657Z,27.95
2019-01-20T02:42:32.026Z,26.10
2019-01-20T02:45:00.436Z,26.23
2019-01-20T02:47:28.597Z,25.72
2019-01-20T02:49:56.461Z,26.70
2019-01-20T02:52:24.561Z,24.72
2019-01-20T02:54:52.465Z,26.95
2019-01-20T02:57:20.520Z,26.15
2019-01-20T02:59:48.563Z,28.05
2019-01-20T03:02:16.473Z,27.55
2019-01-20T03:04:44.424Z,26.20
2019-01-20T03:07:12.380Z,25.25
2019-01-20T03:09:40.212Z,24.80
2019-01-20T03:12:08.283Z,25.60
2019-01-20T03:14:36.242Z,25.32
2019-01-20T03:17:04.104Z,25.40
2019-01-20T03:19:32.092Z,26.33
2019-01-20T03:22:00.096Z,26.77
2019-01-20T03:24:28.331Z,25.05
2019-01-20T03:26:56.188Z,26.02
2019-01-20T03:29:24.287Z,27.50
2019-01-20T03:31:52.247Z,25.97
2019-01-20T03:34:20.318Z,27.30
2019-01-20T03:36:49.998Z,26.85
2019-01-20T03:39:18.020Z,27.22
2019-01-20T03:41:45.995Z,26.10
2019-01-20T03:44:14.056Z,24.40
2019-01-20T03:46:41.900Z,25.55
2019-01-20T03:49:10.083Z,26.68
2019-01-20T03:51:38.321Z,27.85
2019-01-20T03:54:06.467Z,26.33
2019-01-20T03:56:34.412Z,27.30
2019-01-20T03:59:02.729Z,27.00
2019-01-20T04:01:30.682Z,26.17
2019-01-20T04:03:58.685Z,26.17
2019-01-20T04:06:26.766Z,27.17
2019-01-20T04:08:54.676Z,26.62
2019-01-20T04:11:22.517Z,26.57
2019-01-20T04:13:50.658Z,26.87
2019-01-20T04:16:18.600Z,26.73
2019-01-20T04:18:46.699Z,26.70
2019-01-20T04:21:14.681Z,26.17
2019-01-20T04:23:42.640Z,26.10
2019-01-20T04:26:10.571Z,26.52
2019-01-20T04:28:38.561Z,28.73
2019-01-20T04:31:06.725Z,26.48
2019-01-20T04:33:34.608Z,26.68
2019-01-20T04:36:02.715Z,27.40
2019-01-20T04:38:30.801Z,28.47
2019-01-20T04:40:58.734Z,28.15
2019-01-20T04:43:26.809Z,27.90
2019-01-20T04:45:54.829Z,26.27
2019-01-20T04:48:22.956Z,24.65
2019-01-20T04:50:50.877Z,27.17
2019-01-20T04:53:18.735Z,27.98
2019-01-20T04:55:46.677Z,26.02
2019-01-20T04:58:15.377Z,24.10
2019-01-20T05:00:43.645Z,26.15
2019-01-20T05:03:11.581Z,27.27
2019-01-20T05:05:39.325Z,27.50
2019-01-20T05:08:07.340Z,25.62
2019-01-20T05:10:35.351Z,26.60
2019-01-20T05:13:03.455Z,26.40
2019-01-20T05:15:31.401Z,26.68
2019-01-20T05:17:59.352Z,26.45
2019-01-20T05:20:27.215Z,24.98
2019-01-20T05:22:55.379Z,26.85
2019-01-20T05:25:23.414Z,25.40
2019-01-20T05:27:51.431Z,27.37
2019-01-20T05:30:22.111Z,27.00
2019-01-20T05:32:50.384Z,27.50
2019-01-20T05:35:18.401Z,26.57
2019-01-20T05:37:46.648Z,26.75
2019-01-20T05:40:17.256Z,30.60
2019-01-20T05:42:46.829Z,28.92
2019-01-20T05:45:20.291Z,29.63
2019-01-20T05:47:49.757Z,27.35
2019-01-20T05:50:17.913Z,27.82
2019-01-20T05:52:45.966Z,28.23
2019-01-20T05:55:14.591Z,27.22
2019-01-20T05:57:42.948Z,27.82
2019-01-20T06:00:16.998Z,26.52
2019-01-20T06:02:46.354Z,25.02
2019-01-20T06:05:14.279Z,26.95
2019-01-20T06:07:42.150Z,27.98
2019-01-20T06:10:10.513Z,26.97
2019-01-20T06:12:39.411Z,24.63
2019-01-20T06:15:10.545Z,28.20
2019-01-20T06:17:39.888Z,27.80
2019-01-20T06:20:08.169Z,28.67
2019-01-20T06:22:36.374Z,25.90
2019-01-20T06:25:05.124Z,26.20
2019-01-20T06:27:35.470Z,27.05
2019-01-20T06:30:05.912Z,27.90
2019-01-20T06:32:35.274Z,26.35
2019-01-20T06:35:03.427Z,26.35
2019-01-20T06:37:32.252Z,26.77
2019-01-20T06:40:00.241Z,26.97
2019-01-20T06:42:28.413Z,26.07
2019-01-20T06:44:56.403Z,24.92
2019-01-20T06:47:24.411Z,26.40
2019-01-20T06:49:52.411Z,24.25
2019-01-20T06:52:20.276Z,24.12
2019-01-20T06:54:48.308Z,26.77
2019-01-20T06:57:16.299Z,26.33
2019-01-20T06:59:44.360Z,24.47
2019-01-20T07:02:12.225Z,26.97
2019-01-20T07:04:40.161Z,25.60
2019-01-20T07:07:08.127Z,26.45
2019-01-20T07:09:36.156Z,26.27
2019-01-20T07:12:04.300Z,24.98
2019-01-20T07:14:32.273Z,26.85
2019-01-20T07:17:00.237Z,23.42
2019-01-20T07:19:28.549Z,26.80
2019-01-20T07:21:56.616Z,24.95
2019-01-20T07:24:24.615Z,28.70
2019-01-20T07:26:52.565Z,26.35
2019-01-20T07:29:20.670Z,26.27
2019-01-20T07:31:48.824Z,25.00
2019-01-20T07:34:16.877Z,26.73
2019-01-20T07:36:44.808Z,25.80
2019-01-20T07:39:12.768Z,25.43
2019-01-20T07:41:40.720Z,25.23
2019-01-20T07:44:08.616Z,26.25
2019-01-20T07:46:36.536Z,24.80
2019-01-20T07:49:04.389Z,26.00
2019-01-20T07:51:32.336Z,27.30
2019-01-20T07:54:00.175Z,24.67
2019-01-20T07:56:28.230Z,24.85
2019-01-20T07:58:56.289Z,27.13
2019-01-20T08:01:24.408Z,26.80
2019-01-20T08:03:52.381Z,26.33
2019-01-20T08:06:20.244Z,24.15
2019-01-20T08:08:48.184Z,27.70
2019-01-20T08:11:16.261Z,26.12
2019-01-20T08:13:44.192Z,25.57
2019-01-20T08:16:12.264Z,25.77
2019-01-20T08:18:40.313Z,23.80
2019-01-20T08:21:08.335Z,28.15
2019-01-20T08:23:36.322Z,27.55
2019-01-20T08:26:04.297Z,25.17
2019-01-20T08:28:32.233Z,26.20
2019-01-20T08:31:00.128Z,26.33
2019-01-20T08:33:28.294Z,28.00
2019-01-20T08:35:56.293Z,28.07
2019-01-20T08:38:24.281Z,28.95
2019-01-20T08:40:52.245Z,27.22
2019-01-20T08:43:20.096Z,29.37
2019-01-20T08:46:31.664Z,28.27
2019-01-20T08:49:01.150Z,26.85
2019-01-20T08:51:30.055Z,28.80
2019-01-20T08:53:58.011Z,29.48
2019-01-20T08:56:25.896Z,26.73
2019-01-20T08:58:53.780Z,29.50
2019-01-20T09:01:21.966Z,29.82
2019-01-20T09:03:49.807Z,28.67
2019-01-20T09:06:17.809Z,29.75
2019-01-20T09:08:45.869Z,28.32
2019-01-20T09:11:13.798Z,29.37
2019-01-20T09:13:41.685Z,30.30
2019-01-20T09:16:09.649Z,28.30
2019-01-20T09:18:37.648Z,28.27
2019-01-20T09:21:05.780Z,29.10
2019-01-20T09:23:33.748Z,28.80
2019-01-20T09:26:01.757Z,28.50
2019-01-20T09:28:29.933Z,28.50
2019-01-20T09:30:57.975Z,27.80
2019-01-20T09:33:25.880Z,28.52
2019-01-20T09:35:53.973Z,29.72
2019-01-20T09:38:21.819Z,29.32
2019-01-20T09:40:49.801Z,29.70
2019-01-20T09:43:17.829Z,26.55
2019-01-20T09:45:45.857Z,30.77
2019-01-20T09:48:13.840Z,29.30
2019-01-20T09:50:41.811Z,28.83
2019-01-20T09:53:09.948Z,30.00
2019-01-20T09:55:37.963Z,27.85
2019-01-20T09:58:06.144Z,31.57
2019-01-20T10:00:34.349Z,31.10
2019-01-20T10:03:02.304Z,30.75
2019-01-20T10:05:30.548Z,29.05
2019-01-20T10:07:58.577Z,28.25
2019-01-20T10:10:28.186Z,29.35
2019-01-20T10:12:56.541Z,29.00
2019-01-20T10:15:24.523Z,28.25
2019-01-20T10:17:52.462Z,27.85
2019-01-20T10:20:25.558Z,30.68
2019-01-20T10:22:55.231Z,27.60
2019-01-20T10:25:23.295Z,27.80
2019-01-20T10:27:51.449Z,29.98
2019-01-20T10:30:22.368Z,27.82
2019-01-20T10:32:52.043Z,27.70
2019-01-20T10:35:23.570Z,28.90
2019-01-20T10:37:54.228Z,28.20
2019-01-20T10:40:23.753Z,28.90
2019-01-20T10:42:51.712Z,26.25
2019-01-20T10:45:19.691Z,27.58
2019-01-20T10:47:47.667Z,30.02
2019-01-20T10:50:16.792Z,28.80
2019-01-20T10:52:45.242Z,30.27
2019-01-20T10:55:13.366Z,28.80
2019-01-20T10:57:41.224Z,29.05
2019-01-20T11:00:16.215Z,26.65
2019-01-20T11:02:45.590Z,29.87
2019-01-20T11:05:13.936Z,26.70
2019-01-20T11:07:42.137Z,29.25
2019-01-20T11:10:10.366Z,28.15
2019-01-20T11:12:38.560Z,28.12
2019-01-20T11:15:07.894Z,28.47
2019-01-20T11:17:37.265Z,29.50
2019-01-20T11:20:07.543Z,30.77
2019-01-20T11:22:36.972Z,28.85
2019-01-20T11:25:07.284Z,30.40
2019-01-20T11:27:36.714Z,27.62
2019-01-20T11:30:06.361Z,26.23
2019-01-20T11:32:42.191Z,28.70
2019-01-20T11:35:07.513Z,30.00
2019-01-20T11:37:36.988Z,28.57
2019-01-20T11:40:06.939Z,30.57
2019-01-20T11:42:36.297Z,29.60
2019-01-20T11:45:05.845Z,30.60
2019-01-20T11:47:41.764Z,27.93
2019-01-20T11:50:06.746Z,28.32
2019-01-20T11:52:36.290Z,31.37
2019-01-20T11:55:05.349Z,29.35
2019-01-20T11:57:34.892Z,29.98
2019-01-20T12:00:04.707Z,29.55
2019-01-20T12:02:34.177Z,26.27
2019-01-20T12:05:02.117Z,28.50
2019-01-20T12:07:31.613Z,26.55
2019-01-20T12:09:59.553Z,27.40
2019-01-20T12:12:27.915Z,26.80
2019-01-20T12:14:55.913Z,26.55
2019-01-20T12:17:23.875Z,25.72
2019-01-20T12:19:51.889Z,24.18
2019-01-20T12:22:20.041Z,24.80
2019-01-20T12:24:48.119Z,26.85
2019-01-20T12:27:16.108Z,25.48
2019-01-20T12:29:44.172Z,24.75
2019-01-20T12:32:12.126Z,25.77
2019-01-20T12:34:40.007Z,23.40
2019-01-20T12:37:08.073Z,24.50
2019-01-20T12:39:35.974Z,24.75
2019-01-20T12:42:04.035Z,25.95
2019-01-20T12:44:32.109Z,25.05
2019-01-20T12:46:59.985Z,25.08
2019-01-20T12:49:28.007Z,24.47
2019-01-20T12:51:56.028Z,25.20
2019-01-20T12:54:23.984Z,26.05
2019-01-20T12:56:52.068Z,26.33
2019-01-20T12:59:20.137Z,25.25
2019-01-20T13:01:48.238Z,25.62
2019-01-20T13:04:16.307Z,24.23
2019-01-20T13:06:44.184Z,27.58
2019-01-20T13:09:12.457Z,26.50
2019-01-20T13:11:40.525Z,25.95
2019-01-20T13:14:08.601Z,24.72
2019-01-20T13:16:36.505Z,27.17
2019-01-20T13:19:04.735Z,26.17
2019-01-20T13:21:32.706Z,24.77
2019-01-20T13:24:00.771Z,24.65
2019-01-20T13:26:28.835Z,23.77
2019-01-20T13:28:56.836Z,25.17
2019-01-20T13:31:24.808Z,25.72
2019-01-20T13:33:52.668Z,26.10
2019-01-20T13:36:20.939Z,24.87
2019-01-20T13:38:48.851Z,24.47
2019-01-20T13:41:35.130Z,24.37
2019-01-20T13:44:03.255Z,26.42
2019-01-20T13:46:31.545Z,24.60
2019-01-20T13:48:59.666Z,24.63
2019-01-20T13:51:27.672Z,24.05
2019-01-20T13:53:55.671Z,23.45
2019-01-20T13:56:23.888Z,24.15
2019-01-20T13:58:51.928Z,25.65
2019-01-20T14:01:20.098Z,28.00
2019-01-20T14:03:48.004Z,26.80
2019-01-20T14:06:16.103Z,27.70
2019-01-20T14:08:44.538Z,26.02
2019-01-20T14:11:12.653Z,26.02
2019-01-20T14:13:40.649Z,26.45
2019-01-20T14:16:08.828Z,26.35
2019-01-20T14:18:36.878Z,25.95
2019-01-20T14:21:04.922Z,25.02
2019-01-20T14:23:32.935Z,25.85
2019-01-20T14:26:01.068Z,26.60
2019-01-20T14:28:29.089Z,25.90
2019-01-20T14:30:57.991Z,26.68
2019-01-20T14:33:26.240Z,26.60
2019-01-20T14:35:54.439Z,25.52
2019-01-20T14:38:22.404Z,25.65
2019-01-20T14:40:50.400Z,22.95
2019-01-20T14:43:18.439Z,24.72
2019-01-20T14:45:46.700Z,28.05
2019-01-20T14:48:14.762Z,26.87
2019-01-20T14:50:42.853Z,27.05
2019-01-20T14:53:11.173Z,27.10
2019-01-20T14:55:39.298Z,27.90
2019-01-20T14:58:07.580Z,26.95
2019-01-20T15:00:37.410Z,29.65
2019-01-20T15:03:06.737Z,28.60
2019-01-20T15:05:34.846Z,29.40
2019-01-20T15:08:03.778Z,29.18
2019-01-20T15:10:32.375Z,28.77
2019-01-20T15:13:01.014Z,29.85
2019-01-20T15:15:32.107Z,31.30
2019-01-20T15:18:01.755Z,30.82
2019-01-20T15:20:30.910Z,27.80
2019-01-20T15:22:58.934Z,30.08
2019-01-20T15:25:27.021Z,28.87
2019-01-20T15:27:55.104Z,29.65
2019-01-20T15:30:25.412Z,28.32
2019-01-20T15:32:55.725Z,31.37
2019-01-20T15:35:24.637Z,29.40
2019-01-20T15:37:52.652Z,32.30
2019-01-20T15:40:21.831Z,31.23
2019-01-20T15:42:50.528Z,33.90
2019-01-20T15:45:19.628Z,32.80
2019-01-20T15:47:48.997Z,30.97
2019-01-20T15:50:19.377Z,30.70
2019-01-20T15:52:48.815Z,31.97
2019-01-20T15:55:16.922Z,31.45
2019-01-20T15:57:44.895Z,32.45
2019-01-20T16:00:16.040Z,30.72
2019-01-20T16:02:45.441Z,31.97
2019-01-20T16:05:13.709Z,33.33
2019-01-20T16:07:42.184Z,33.58
2019-01-20T16:10:11.509Z,34.10
2019-01-20T16:12:41.281Z,32.38
2019-01-20T16:15:12.268Z,33.73
2019-01-20T16:17:42.242Z,32.00
2019-01-20T16:20:11.670Z,35.05
2019-01-20T16:22:41.131Z,32.65
2019-01-20T16:25:21.686Z,32.63
2019-01-20T16:27:51.106Z,33.05
2019-01-20T16:30:24.413Z,33.58
2019-01-20T16:32:53.837Z,35.73
2019-01-20T16:35:22.305Z,33.13
2019-01-20T16:37:51.321Z,32.58
2019-01-20T16:40:21.270Z,34.20
2019-01-20T16:42:50.614Z,33.70
2019-01-20T16:45:21.230Z,33.63
2019-01-20T16:47:50.732Z,33.58
2019-01-20T16:50:20.248Z,35.43
2019-01-20T16:52:54.578Z,33.53
2019-01-20T16:55:19.872Z,34.25
2019-01-20T16:57:47.860Z,35.48
2019-01-20T17:00:18.718Z,34.53
2019-01-20T17:02:48.284Z,35.15
2019-01-20T17:05:16.431Z,32.38
2019-01-20T17:07:44.725Z,33.92
2019-01-20T17:10:15.490Z,34.00
2019-01-20T17:12:45.088Z,36.98
2019-01-20T17:15:19.378Z,34.38
2019-01-20T17:17:48.980Z,35.58
2019-01-20T17:20:17.610Z,33.67
2019-01-20T17:22:45.852Z,33.95
2019-01-20T17:25:14.534Z,34.25
2019-01-20T17:27:43.219Z,34.78
2019-01-20T17:30:15.274Z,34.50
2019-01-20T17:32:44.698Z,34.08
2019-01-20T17:35:12.796Z,35.03
2019-01-20T17:37:40.931Z,35.48
2019-01-20T17:40:12.111Z,35.78
2019-01-20T17:42:41.521Z,32.42
2019-01-20T17:45:10.814Z,34.92
2019-01-20T17:47:40.337Z,34.10
2019-01-20T17:50:15.119Z,33.78
2019-01-20T17:52:44.559Z,34.70
2019-01-20T17:55:12.839Z,36.48
2019-01-20T17:57:40.838Z,34.50
2019-01-20T18:00:12.076Z,33.30
2019-01-20T18:02:41.597Z,32.98
2019-01-20T18:05:11.189Z,36.85
2019-01-20T18:07:40.669Z,32.58
2019-01-20T18:10:09.768Z,33.95
2019-01-20T18:12:38.942Z,35.20
2019-01-20T18:15:08.852Z,33.35
2019-01-20T18:17:38.211Z,33.92
2019-01-20T18:20:08.998Z,33.53
2019-01-20T18:22:38.405Z,33.75
2019-01-20T18:25:09.983Z,34.67
2019-01-20T18:27:39.460Z,34.67
2019-01-20T18:30:10.059Z,33.65
2019-01-20T18:32:39.548Z,32.35
2019-01-20T18:35:07.988Z,34.00
2019-01-20T18:37:37.276Z,31.73
2019-01-20T18:40:11.128Z,35.55
2019-01-20T18:42:40.631Z,34.88
2019-01-20T18:45:10.108Z,33.20
2019-01-20T18:47:39.576Z,34.75
2019-01-20T18:50:09.138Z,36.38
2019-01-20T18:52:38.626Z,35.78
2019-01-20T18:55:08.848Z,36.28
2019-01-20T18:57:38.390Z,32.73
2019-01-20T19:00:10.797Z,36.00
2019-01-20T19:02:40.273Z,35.23
2019-01-20T19:05:10.960Z,34.73
2019-01-20T19:07:40.471Z,35.35
2019-01-20T19:10:09.440Z,34.48
2019-01-20T19:12:38.956Z,35.17
2019-01-20T19:15:08.371Z,36.60
2019-01-20T19:17:37.889Z,34.45
2019-01-20T19:20:07.852Z,35.48
2019-01-20T19:22:37.328Z,35.10
2019-01-20T19:25:06.254Z,33.83
2019-01-20T19:27:34.565Z,37.23
2019-01-20T19:30:03.546Z,36.30
2019-01-20T19:32:32.997Z,36.42
2019-01-20T19:35:01.726Z,35.15
2019-01-20T19:37:31.217Z,35.03
2019-01-20T19:39:59.211Z,34.38
2019-01-20T19:42:27.120Z,36.05
2019-01-20T19:44:55.179Z,33.92
2019-01-20T19:47:23.253Z,34.70
2019-01-20T19:49:51.329Z,35.80
2019-01-20T19:52:19.341Z,34.78
2019-01-20T19:54:47.330Z,37.38
2019-01-20T19:57:15.223Z,35.40
2019-01-20T19:59:43.289Z,34.65
2019-01-20T20:02:11.432Z,36.95
2019-01-20T20:04:39.396Z,37.15
2019-01-20T20:07:07.327Z,35.55
2019-01-20T20:09:35.549Z,37.93
2019-01-20T20:12:04.408Z,36.95
2019-01-20T20:14:32.381Z,35.68
2019-01-20T20:17:00.353Z,35.92
2019-01-20T20:19:28.377Z,37.20
2019-01-20T20:21:56.317Z,34.90
2019-01-20T20:24:25.486Z,37.25
2019-01-20T20:26:53.895Z,37.10
2019-01-20T20:29:21.980Z,37.08
2019-01-20T20:31:50.121Z,36.77
2019-01-20T20:34:18.170Z,34.50
2019-01-20T20:36:46.362Z,36.70
2019-01-20T20:39:14.369Z,34.90
2019-01-20T20:41:43.799Z,37.20
2019-01-20T20:44:11.905Z,35.90
2019-01-20T20:46:39.904Z,36.50
2019-01-20T20:49:07.856Z,37.53
2019-01-20T20:51:36.212Z,37.33
2019-01-20T20:54:04.096Z,37.15
2019-01-20T20:56:32.115Z,37.90
2019-01-20T20:59:00.101Z,36.40
2019-01-20T21:01:28.278Z,35.98
2019-01-20T21:03:56.321Z,34.95
2019-01-20T21:06:24.505Z,36.60
2019-01-20T21:08:52.380Z,38.70
2019-01-20T21:11:20.461Z,38.00
2019-01-20T21:13:48.487Z,35.98
2019-01-20T21:16:16.658Z,39.08
2019-01-20T21:18:44.619Z,36.90
2019-01-20T21:21:12.568Z,37.67
2019-01-20T21:23:40.573Z,36.98
2019-01-20T21:26:08.589Z,36.93
2019-01-20T21:28:36.629Z,38.67
2019-01-20T21:31:04.522Z,34.83
2019-01-20T21:33:32.806Z,38.30
2019-01-20T21:36:00.680Z,36.88
2019-01-20T21:38:28.848Z,36.48
2019-01-20T21:40:56.744Z,36.85
2019-01-20T21:43:24.721Z,38.78
2019-01-20T21:45:52.586Z,35.43
2019-01-20T21:48:20.558Z,37.33
2019-01-20T21:50:48.599Z,36.28
2019-01-20T21:53:16.656Z,38.23
2019-01-20T21:55:44.616Z,37.00
2019-01-20T21:58:12.701Z,38.53
2019-01-20T22:00:40.774Z,37.25
2019-01-20T22:03:08.755Z,37.98
2019-01-20T22:05:36.585Z,36.33
2019-01-20T22:08:04.681Z,39.38
2019-01-20T22:10:32.654Z,38.35
2019-01-20T22:13:00.888Z,35.68
2019-01-20T22:15:28.888Z,38.88
2019-01-20T22:17:57.015Z,38.63
2019-01-20T22:20:24.910Z,37.33
2019-01-20T22:22:53.120Z,39.40
2019-01-20T22:25:21.185Z,38.00
2019-01-20T22:27:49.339Z,36.88
2019-01-20T22:30:19.793Z,40.80
2019-01-20T22:32:49.368Z,38.10
2019-01-20T22:35:17.431Z,37.38
2019-01-20T22:37:45.429Z,37.17
2019-01-20T22:40:14.345Z,37.28
2019-01-20T22:42:43.871Z,38.02
2019-01-20T22:45:14.476Z,38.73
2019-01-20T22:47:43.817Z,35.88
2019-01-20T22:50:12.057Z,39.15
2019-01-20T22:52:40.267Z,37.50
2019-01-20T22:55:10.365Z,39.98
2019-01-20T22:57:40.118Z,41.15
2019-01-20T23:00:51.279Z,39.58
2019-01-20T23:03:20.777Z,37.23
2019-01-20T23:05:50.948Z,37.33
2019-01-20T23:08:19.050Z,39.00
2019-01-20T23:10:47.249Z,38.80
2019-01-20T23:13:15.335Z,40.17
2019-01-20T23:15:43.396Z,38.63
2019-01-20T23:18:11.357Z,40.90
2019-01-20T23:20:39.347Z,38.50
2019-01-20T23:23:07.404Z,40.23
2019-01-20T23:25:35.485Z,38.33
2019-01-20T23:28:03.447Z,41.28
2019-01-20T23:30:31.405Z,39.03
2019-01-20T23:32:59.361Z,38.40
2019-01-20T23:35:27.307Z,37.25
2019-01-20T23:37:55.261Z,37.50
2019-01-20T23:40:23.136Z,38.42
2019-01-20T23:42:51.261Z,37.78
2019-01-20T23:45:19.141Z,38.50
2019-01-20T23:47:47.317Z,38.28
2019-01-20T23:50:15.357Z,39.78
2019-01-20T23:52:43.588Z,40.55
2019-01-20T23:55:11.675Z,38.45
2019-01-20T23:57:39.908Z,38.88
